Ana Sayfa
METAR-TAF:

METAR-TAF

Havaalanları :

Virginia Highlands Airport

Abingdon, Virginia, Amerika Birleşik Devletleri

Enlem: 36-41N, Boylam: 082-02W, yükseklik: 631 m

Güncel hava durumu gözlemi

Rapor saat 15:35 UTC de 16 dakika önce yapıldı.
Rüzgar batı/güneybatıdan 8 kt
Sıcaklık 25°C
Nem 83%
Basınç 1021 hPa
Görüş mesafesi: 16.1 km
1700 ft yükseklikte parçalı çok bulutlu
2200 ft yükseklikte çok bulutlu

METAR: KVJI 211535Z AUTO 24008KT 10SM BKN017 OVC022 25/22 A3015 RMK AO2 T02450215

Saat: 11:51 (15:51 UTC)


TAF: eksik

4.000'den fazla havaalanı için hava durumu gözlemleri ve tahminleri (METAR ve TAF raporları).

Kullanılabilir istasyonlar harita üzerinde sarı ve kırmızı noktalarla gösterilir.

İstasyonun adını görmek için fareyi noktanın üzerinde gezdirin.

Sonrasında hava gözlem ve tahminlerini görmek için tıklayın.

Haritayı değiştirmek için: yaklaştırmak için siyah artı işaretli yeşil düğmeye ve uzaklaştırmak için de eksi işaretli düğmeye hızla tıklayın; bitişik haritalar için yeşil okları kullanın.


METAR-TAF: